Terminal Aerodrome Forecast
Issued by NWS Sioux Falls, SD

Home | Current Version | Previous Version | Graphics & Text | Print | Product List | Glossary Off
Versions: 1 2 3 4 5 6 7 8 9 10 11 12 13

000
FTUS43 KFSD 032340
TAFFSD
TAF
KFSD 032340Z 0400/0424 33016G23KT P6SM SCT025 BKN180
     FM040200 32010KT P6SM SCT035 BKN180
     FM040700 30006KT P6SM SCT040 BKN200
     FM041600 34014KT P6SM BKN035
     FM041900 33015G23KT P6SM SCT035=

USA.gov is the U.S. government's official web portal to all federal, state and local government web resources and services.